This is the latest recevied weather packets stored in our database for station/object IU4KCH-20. If no packets are shown the sender has not sent any weather packets the latest 10 day(s).
| Time | Temp. | Humidity | Pressure | Rain* | Wind** | Luminosity | Snow |
|---|---|---|---|---|---|---|---|
| 1777819484 | 41.67° C | 16% | 1013.3 hPa | - | - | - | - |
| 1777818582 | 41.67° C | 16% | 1013.5 hPa | - | - | - | - |
| 1777817681 | 39.44° C | 18% | 1013.8 hPa | - | - | - | - |
| 1777816781 | 33.89° C | 22% | 1014 hPa | - | - | - | - |
| 1777815879 | 40° C | 17% | 1014 hPa | - | - | - | - |
| 1777814978 | 36.67° C | 21% | 1014.4 hPa | - | - | - | - |
| 1777814078 | 32.78° C | 23% | 1014.7 hPa | - | - | - | - |
| 1777813177 | 31.11° C | 24% | 1014.8 hPa | - | - | - | - |
| 1777812276 | 31.67° C | 24% | 1014.8 hPa | - | - | - | - |
| 1777811375 | 34.44° C | 21% | 1014.9 hPa | - | - | - | - |
| 1777810474 | 32.22° C | 24% | 1014.9 hPa | - | - | - | - |
| 1777807772 | 27.22° C | 32% | 1015.2 hPa | - | - | - | - |
| 1777806872 | 26.11° C | 32% | 1015.2 hPa | - | - | - | - |
| 1777805970 | 26.11° C | 35% | 1015.4 hPa | - | - | - | - |
| 1777805070 | 24.44° C | 36% | 1015.5 hPa | - | - | - | - |
| 1777804170 | 25° C | 36% | 1015.7 hPa | - | - | - | - |
| 1777803268 | 23.89° C | 37% | 1015.9 hPa | - | - | - | - |
| 1777802367 | 23.33° C | 36% | 1016 hPa | - | - | - | - |
| 1777800566 | 22.22° C | 41% | 1016.3 hPa | - | - | - | - |
| 1777799665 | 21.67° C | 40% | 1016.4 hPa | - | - | - | - |
| 1777798764 | 21.11° C | 41% | 1016.4 hPa | - | - | - | - |
| 1777797863 | 20.56° C | 43% | 1016.4 hPa | - | - | - | - |
| 1777796962 | 20° C | 43% | 1016.6 hPa | - | - | - | - |
| 1777796061 | 20° C | 46% | 1016.7 hPa | - | - | - | - |
| 1777795160 | 19.44° C | 46% | 1016.5 hPa | - | - | - | - |
* Rain since midnight (hover to see other rain measurements)
** Current wind speed in m/s (hover to see current wind gust speed)